Time;durP1;ratioP1;P1;durP2;ratioP2;P2;SDS_P1;SDS_P2;PMS_P1;PMS_P2;Temp;Humidity;BMP_temperature;BMP_pressure;BME280_temperature;BME280_humidity;BME280_pressure;Samples;Min_cycle;Max_cycle;Signal;HPM_P1;HPM_P2
2023/09/23 00:00:12;;;;;;;2.38;0.50;;;12.90;99.90;;;;;;5060242;28;20110;-69
2023/09/23 00:02:39;;;;;;;1.02;0.55;;;12.90;99.90;;;;;;5060884;28;20041;-69
2023/09/23 00:05:09;;;;;;;1.20;0.45;;;12.90;99.90;;;;;;5040151;28;20075;-69
2023/09/23 00:07:35;;;;;;;1.50;0.60;;;12.90;99.90;;;;;;5056982;28;20044;-69
2023/09/23 00:10:08;;;;;;;1.00;0.45;;;12.90;99.90;;;;;;5042541;28;20064;-69
2023/09/23 00:12:35;;;;;;;1.60;0.70;;;12.90;99.90;;;;;;5048818;28;20102;-69
2023/09/23 00:15:07;;;;;;;1.45;0.75;;;12.90;99.90;;;;;;5061069;28;20514;-69
2023/09/23 00:17:37;;;;;;;2.05;0.57;;;12.90;99.90;;;;;;5045164;28;20045;-69
2023/09/23 00:20:14;;;;;;;0.95;0.57;;;12.90;99.90;;;;;;5059333;28;20045;-69
2023/09/23 00:22:46;;;;;;;1.58;0.57;;;12.80;99.90;;;;;;5045128;28;20425;-69
2023/09/23 00:25:13;;;;;;;3.20;0.65;;;12.90;99.90;;;;;;5025142;28;20097;-70
2023/09/23 00:27:42;;;;;;;0.95;0.50;;;12.90;99.90;;;;;;5045359;28;20056;-69
2023/09/23 00:30:09;;;;;;;2.47;0.30;;;12.90;99.90;;;;;;5037135;28;20062;-69
2023/09/23 00:32:37;;;;;;;1.65;0.47;;;12.80;99.90;;;;;;5042501;28;20043;-69
2023/09/23 00:35:04;;;;;;;1.50;0.77;;;12.80;99.90;;;;;;5041942;28;20087;-69
2023/09/23 00:37:36;;;;;;;2.35;0.50;;;12.80;99.90;;;;;;5043473;28;20059;-69
2023/09/23 00:40:03;;;;;;;0.93;0.50;;;12.80;99.90;;;;;;5024101;28;20467;-69
2023/09/23 00:42:32;;;;;;;1.98;0.77;;;12.80;99.90;;;;;;5041983;28;20045;-69
2023/09/23 00:44:58;;;;;;;3.30;0.52;;;12.80;99.90;;;;;;5042353;28;20130;-69
2023/09/23 00:47:25;;;;;;;0.98;0.20;;;12.80;99.90;;;;;;5045662;28;20044;-69
2023/09/23 00:49:54;;;;;;;0.90;0.40;;;12.80;99.90;;;;;;5039241;28;20048;-69
2023/09/23 00:52:20;;;;;;;1.38;0.55;;;12.80;99.90;;;;;;5063454;28;20076;-69
2023/09/23 00:54:49;;;;;;;1.98;0.75;;;12.80;99.90;;;;;;5058042;28;20083;-69
2023/09/23 00:57:18;;;;;;;1.27;0.55;;;12.80;99.90;;;;;;5062587;28;20041;-69
2023/09/23 00:59:44;;;;;;;2.40;1.10;;;12.80;99.90;;;;;;5057630;28;20456;-69
2023/09/23 01:02:13;;;;;;;2.50;1.23;;;12.80;99.90;;;;;;5040355;28;20040;-69
2023/09/23 01:04:39;;;;;;;5.75;2.03;;;12.80;99.90;;;;;;5047345;28;20804;-69
2023/09/23 01:07:09;;;;;;;3.05;1.30;;;12.80;99.90;;;;;;5055552;28;20038;-69
2023/09/23 01:09:35;;;;;;;2.03;0.90;;;12.80;99.90;;;;;;5039259;28;20052;-69
2023/09/23 01:12:01;;;;;;;;;;;12.70;99.90;;;;;;5042331;28;20451;-69
2023/09/23 01:14:27;;;;;;;3.55;1.27;;;12.70;99.90;;;;;;5059434;28;19916;-70
2023/09/23 01:16:55;;;;;;;3.03;1.38;;;12.80;99.90;;;;;;5044340;28;20041;-70
2023/09/23 01:19:26;;;;;;;2.13;1.10;;;12.70;99.90;;;;;;5062678;28;20417;-69
2023/09/23 01:21:54;;;;;;;2.40;1.20;;;12.70;99.90;;;;;;5054280;28;20044;-69
2023/09/23 01:24:23;;;;;;;3.23;1.00;;;12.80;99.90;;;;;;5040800;28;20056;-69
2023/09/23 01:26:52;;;;;;;2.13;0.98;;;12.70;99.90;;;;;;5036211;28;20337;-69
2023/09/23 01:29:24;;;;;;;3.30;1.13;;;12.70;99.90;;;;;;5062432;28;20040;-69
2023/09/23 01:32:25;;;;;;;2.38;1.02;;;12.80;99.90;;;;;;5042159;28;20066;-69
2023/09/23 01:34:52;;;;;;;2.70;0.95;;;12.80;99.90;;;;;;5037292;28;20443;-69
2023/09/23 01:37:21;;;;;;;1.63;0.68;;;12.80;99.90;;;;;;5044143;28;20038;-69
2023/09/23 01:39:52;;;;;;;1.77;0.77;;;12.80;99.90;;;;;;5033479;28;20029;-69
2023/09/23 01:42:18;;;;;;;4.40;0.88;;;12.70;99.90;;;;;;5047302;28;20040;-69
2023/09/23 01:44:45;;;;;;;2.92;1.15;;;12.70;99.90;;;;;;5050265;28;20048;-69
2023/09/23 01:47:11;;;;;;;1.92;0.90;;;12.80;99.90;;;;;;5063900;28;20052;-69
2023/09/23 01:49:37;;;;;;;1.80;0.80;;;12.70;99.90;;;;;;5066588;28;20530;-69
2023/09/23 01:52:03;;;;;;;1.52;0.80;;;12.70;99.90;;;;;;5027743;28;20611;-68
2023/09/23 01:54:29;;;;;;;4.32;0.85;;;12.70;99.90;;;;;;5052134;28;20356;-69
2023/09/23 01:56:57;;;;;;;2.28;0.88;;;12.70;99.90;;;;;;5065462;28;20404;-69
2023/09/23 01:59:28;;;;;;;2.45;0.60;;;12.70;99.90;;;;;;5061674;28;20033;-69
2023/09/23 02:01:53;;;;;;;2.03;0.93;;;12.70;99.90;;;;;;5053732;28;20143;-69
2023/09/23 02:04:19;;;;;;;2.80;1.15;;;12.60;99.90;;;;;;5024747;28;20107;-68
2023/09/23 02:06:46;;;;;;;1.83;0.93;;;12.60;99.90;;;;;;5047843;28;20182;-68
2023/09/23 02:09:16;;;;;;;2.10;1.15;;;12.60;99.90;;;;;;5045844;28;20288;-68
2023/09/23 02:11:42;;;;;;;1.88;1.10;;;12.60;99.90;;;;;;5050397;28;20048;-68
2023/09/23 02:14:08;;;;;;;2.10;0.90;;;12.60;99.90;;;;;;5052160;28;20036;-68
2023/09/23 02:16:34;;;;;;;1.95;1.15;;;12.60;99.90;;;;;;5026160;28;20052;-68
2023/09/23 02:19:00;;;;;;;3.78;1.27;;;12.50;99.90;;;;;;5051339;28;20161;-68
2023/09/23 02:21:30;;;;;;;2.88;1.48;;;12.50;99.90;;;;;;5043136;28;20094;-68
2023/09/23 02:23:58;;;;;;;5.28;1.75;;;12.50;99.90;;;;;;5049496;28;20101;-68
2023/09/23 02:26:24;;;;;;;2.25;1.50;;;12.40;99.90;;;;;;5044881;28;20114;-68
2023/09/23 02:28:49;;;;;;;2.25;1.33;;;12.50;99.90;;;;;;5060831;28;20484;-68
2023/09/23 02:31:16;;;;;;;3.75;2.13;;;12.50;99.90;;;;;;5047277;28;20040;-69
2023/09/23 02:33:43;;;;;;;3.00;1.70;;;12.40;99.90;;;;;;5070639;28;20479;-69
2023/09/23 02:36:09;;;;;;;2.58;1.50;;;12.50;99.90;;;;;;5038149;28;20044;-69
2023/09/23 02:38:37;;;;;;;3.70;2.15;;;12.50;99.90;;;;;;5064954;28;20055;-69
2023/09/23 02:41:11;;;;;;;4.18;1.70;;;12.50;99.90;;;;;;5059300;28;20029;-69
2023/09/23 02:43:37;;;;;;;4.90;2.20;;;12.40;99.90;;;;;;5060070;28;20075;-69
2023/09/23 02:46:03;;;;;;;4.97;2.42;;;12.40;99.90;;;;;;5063859;28;20471;-69
2023/09/23 02:48:29;;;;;;;4.38;1.92;;;12.40;99.90;;;;;;5061310;28;20115;-69
2023/09/23 02:51:00;;;;;;;3.72;1.98;;;12.40;99.90;;;;;;5051819;28;20048;-69
2023/09/23 02:53:26;;;;;;;3.92;2.30;;;12.30;99.90;;;;;;5046809;28;20697;-69
2023/09/23 02:56:08;;;;;;;4.10;2.15;;;12.30;99.90;;;;;;5040999;28;20052;-69
2023/09/23 02:58:38;;;;;;;4.00;2.35;;;12.30;99.90;;;;;;5065031;28;20132;-69
2023/09/23 03:01:05;;;;;;;5.00;2.63;;;12.30;99.90;;;;;;5064771;28;20071;-69
2023/09/23 03:03:33;;;;;;;5.03;2.78;;;12.30;99.90;;;;;;5045766;28;20559;-69
2023/09/23 03:06:02;;;;;;;4.05;2.50;;;12.30;99.90;;;;;;5067101;28;20039;-69
2023/09/23 03:08:29;;;;;;;4.63;2.60;;;12.30;99.90;;;;;;5049300;28;20520;-69
2023/09/23 03:11:02;;;;;;;5.85;3.28;;;12.30;99.90;;;;;;5048813;28;20072;-69
2023/09/23 03:13:29;;;;;;;5.47;2.67;;;12.20;99.90;;;;;;5042840;28;20044;-69
2023/09/23 03:15:58;;;;;;;4.47;3.13;;;12.20;99.90;;;;;;5043319;28;20049;-69
2023/09/23 03:18:33;;;;;;;3.95;2.78;;;12.20;99.90;;;;;;5065662;28;20423;-69
2023/09/23 03:21:08;;;;;;;5.70;2.35;;;12.20;99.90;;;;;;5033915;28;20041;-69
2023/09/23 03:23:40;;;;;;;5.57;2.53;;;12.20;99.90;;;;;;5064828;28;20028;-69
2023/09/23 03:26:08;;;;;;;5.30;2.92;;;12.20;99.90;;;;;;5048893;28;20377;-69
2023/09/23 03:28:35;;;;;;;4.05;2.72;;;12.20;99.90;;;;;;5046960;28;20043;-68
2023/09/23 03:31:01;;;;;;;4.78;2.97;;;12.20;99.90;;;;;;5043907;28;20484;-68
2023/09/23 03:33:27;;;;;;;4.95;3.10;;;12.20;99.90;;;;;;5046144;28;20503;-68
2023/09/23 03:35:56;;;;;;;7.45;3.03;;;12.20;99.90;;;;;;5070747;28;20124;-69
2023/09/23 03:38:24;;;;;;;4.97;3.22;;;12.10;99.90;;;;;;5062111;28;20472;-69
2023/09/23 03:40:57;;;;;;;5.57;3.45;;;12.10;99.90;;;;;;5064744;28;20126;-69
2023/09/23 03:43:24;;;;;;;5.32;2.90;;;12.10;99.90;;;;;;5036013;28;20044;-68
2023/09/23 03:45:51;;;;;;;3.88;2.88;;;12.10;99.90;;;;;;5064026;28;20055;-68
2023/09/23 03:48:16;;;;;;;5.45;3.03;;;12.10;99.90;;;;;;5041452;28;20044;-68
2023/09/23 03:50:48;;;;;;;5.10;3.30;;;12.00;99.90;;;;;;5066000;28;20437;-68
2023/09/23 03:53:13;;;;;;;4.93;3.38;;;12.10;99.90;;;;;;5061055;28;20292;-69
2023/09/23 03:55:39;;;;;;;4.78;3.35;;;12.10;99.90;;;;;;5042251;28;20392;-69
2023/09/23 03:58:05;;;;;;;5.05;3.20;;;12.00;99.90;;;;;;5065054;28;20133;-69
2023/09/23 04:00:36;;;;;;;4.70;3.22;;;12.00;99.90;;;;;;5046196;28;20049;-69
2023/09/23 04:03:02;;;;;;;5.47;3.47;;;12.00;99.90;;;;;;5039884;28;20045;-69
2023/09/23 04:05:31;;;;;;;5.65;3.65;;;12.00;99.90;;;;;;5042931;28;20032;-68
2023/09/23 04:07:56;;;;;;;8.02;3.60;;;12.00;99.90;;;;;;5043557;28;20131;-69
2023/09/23 04:10:28;;;;;;;5.68;3.20;;;12.00;99.90;;;;;;5047968;28;20177;-69
2023/09/23 04:12:54;;;;;;;6.25;3.70;;;12.00;99.90;;;;;;5042012;28;20059;-68
2023/09/23 04:15:26;;;;;;;5.70;3.42;;;11.90;99.90;;;;;;5042786;28;20362;-69
2023/09/23 04:17:54;;;;;;;6.70;4.25;;;12.00;99.90;;;;;;5063348;28;20049;-68
2023/09/23 04:20:20;;;;;;;5.80;4.00;;;12.00;99.90;;;;;;5027916;28;20047;-69
2023/09/23 04:22:49;;;;;;;5.20;3.50;;;12.00;99.90;;;;;;5040970;28;20049;-69
2023/09/23 04:25:14;;;;;;;7.00;3.80;;;12.00;99.90;;;;;;5044796;28;20063;-69
2023/09/23 04:27:40;;;;;;;5.47;3.90;;;12.00;99.90;;;;;;5062246;28;20052;-69
2023/09/23 04:30:11;;;;;;;5.00;3.87;;;12.00;99.90;;;;;;5041608;28;20434;-69
2023/09/23 04:32:38;;;;;;;8.15;4.05;;;12.00;99.90;;;;;;5062638;28;20370;-69
2023/09/23 04:35:05;;;;;;;7.03;4.65;;;12.00;99.90;;;;;;5044839;28;20682;-68
2023/09/23 04:37:36;;;;;;;8.23;4.28;;;12.00;99.90;;;;;;5038822;28;20673;-69
2023/09/23 04:40:10;;;;;;;6.70;4.30;;;12.00;99.90;;;;;;5062529;28;20051;-69
2023/09/23 04:42:41;;;;;;;7.00;4.30;;;12.00;99.90;;;;;;5046644;28;20083;-69
2023/09/23 04:45:11;;;;;;;8.05;4.63;;;12.00;99.90;;;;;;5060301;28;20047;-68
2023/09/23 04:47:38;;;;;;;10.77;4.53;;;12.00;99.90;;;;;;5047811;28;20051;-69
2023/09/23 04:50:05;;;;;;;7.65;4.20;;;11.90;99.90;;;;;;5039907;28;20044;-69
2023/09/23 04:52:31;;;;;;;5.45;4.05;;;11.90;99.90;;;;;;5045123;28;20040;-69
2023/09/23 04:54:57;;;;;;;6.55;4.10;;;11.90;99.90;;;;;;5044821;28;20655;-69
2023/09/23 04:57:23;;;;;;;9.23;4.97;;;11.90;99.90;;;;;;5047819;28;20048;-69
2023/09/23 04:59:49;;;;;;;8.40;3.87;;;11.80;99.90;;;;;;5047918;28;20282;-69
2023/09/23 05:02:17;;;;;;;5.20;3.13;;;11.90;99.90;;;;;;5039534;28;20618;-69
2023/09/23 05:04:46;;;;;;;5.18;3.40;;;11.80;99.90;;;;;;5061459;28;20056;-69
2023/09/23 05:07:15;;;;;;;5.35;3.17;;;11.80;99.90;;;;;;5029288;28;20044;-69
2023/09/23 05:09:42;;;;;;;6.78;3.47;;;11.80;99.90;;;;;;5054976;28;20056;-68
2023/09/23 05:12:10;;;;;;;5.35;3.20;;;11.80;99.90;;;;;;5065467;28;20037;-69
2023/09/23 05:14:37;;;;;;;4.78;3.42;;;11.70;99.90;;;;;;5035423;28;20120;-69
2023/09/23 05:17:05;;;;;;;4.25;2.58;;;11.70;99.90;;;;;;5033214;28;20052;-69
2023/09/23 05:19:34;;;;;;;6.78;3.08;;;11.70;99.90;;;;;;5050953;28;20041;-68
2023/09/23 05:22:00;;;;;;;6.95;3.17;;;11.70;99.90;;;;;;5039623;28;20037;-69
2023/09/23 05:24:27;;;;;;;5.75;3.22;;;11.70;99.90;;;;;;5058893;28;20032;-69
2023/09/23 05:26:55;;;;;;;5.65;2.65;;;11.70;99.90;;;;;;5049776;28;20090;-69
2023/09/23 05:29:21;;;;;;;4.32;3.00;;;11.70;99.90;;;;;;5065127;28;20044;-69
2023/09/23 05:31:50;;;;;;;6.35;3.45;;;11.60;99.90;;;;;;5043247;28;20044;-69
2023/09/23 05:34:16;;;;;;;6.53;3.50;;;11.60;99.90;;;;;;5041358;28;20036;-69
2023/09/23 05:36:42;;;;;;;7.65;3.50;;;11.60;99.90;;;;;;5044542;28;20109;-69
2023/09/23 05:39:08;;;;;;;4.97;3.40;;;11.60;99.90;;;;;;5066087;28;20036;-69
2023/09/23 05:41:33;;;;;;;9.27;4.17;;;11.70;99.90;;;;;;5061503;28;20055;-69
2023/09/23 05:43:59;;;;;;;5.87;3.67;;;11.60;99.90;;;;;;5065010;28;20311;-69
2023/09/23 05:46:27;;;;;;;7.82;3.90;;;11.60;99.90;;;;;;5066775;28;20097;-69
2023/09/23 05:48:53;;;;;;;6.43;3.72;;;11.60;99.90;;;;;;5047444;28;20123;-69
2023/09/23 05:51:19;;;;;;;5.40;3.15;;;11.60;99.90;;;;;;5062570;28;20146;-69
2023/09/23 05:53:47;;;;;;;5.45;3.50;;;11.60;99.90;;;;;;5049953;28;20496;-69
2023/09/23 05:56:15;;;;;;;6.60;4.00;;;11.60;99.90;;;;;;5064878;28;20419;-69
2023/09/23 05:58:41;;;;;;;7.25;4.00;;;11.60;99.90;;;;;;5058608;28;20128;-69
2023/09/23 06:01:07;;;;;;;8.95;4.07;;;11.60;99.90;;;;;;5045006;28;20123;-69
2023/09/23 06:03:33;;;;;;;10.70;5.25;;;11.60;99.90;;;;;;5041588;28;20302;-69
2023/09/23 06:05:59;;;;;;;8.47;4.93;;;11.70;99.90;;;;;;5065275;28;20191;-69
2023/09/23 06:08:25;;;;;;;7.60;4.27;;;11.70;99.90;;;;;;5040582;28;20302;-69
2023/09/23 06:10:52;;;;;;;7.65;4.28;;;11.70;99.90;;;;;;5034662;28;20044;-69
2023/09/23 06:13:17;;;;;;;9.85;4.90;;;11.80;99.90;;;;;;5050270;28;20045;-68
2023/09/23 06:15:49;;;;;;;9.30;5.20;;;11.80;99.90;;;;;;5047021;28;20036;-69
2023/09/23 06:18:14;;;;;;;8.55;4.97;;;11.80;99.90;;;;;;5022953;28;20420;-69
2023/09/23 06:20:40;;;;;;;10.50;5.65;;;11.90;99.90;;;;;;5052722;28;20051;-69
2023/09/23 06:23:11;;;;;;;9.25;5.10;;;11.90;99.90;;;;;;5052126;28;22905;-68
2023/09/23 06:25:39;;;;;;;11.40;5.95;;;11.90;99.90;;;;;;5041570;28;20087;-69
2023/09/23 06:28:05;;;;;;;9.00;5.03;;;12.00;99.90;;;;;;5063825;28;20043;-77
2023/09/23 06:30:31;;;;;;;8.73;5.50;;;12.10;99.90;;;;;;5041389;28;20052;-69
2023/09/23 06:32:56;;;;;;;11.73;5.33;;;12.10;99.90;;;;;;5063443;28;20089;-70
2023/09/23 06:35:24;;;;;;;11.10;5.60;;;12.10;99.90;;;;;;5048021;28;20915;-69
2023/09/23 06:37:56;;;;;;;11.48;6.28;;;12.20;99.90;;;;;;5062606;28;20387;-68
2023/09/23 06:40:22;;;;;;;11.68;5.90;;;12.20;99.90;;;;;;5051719;28;20045;-68
2023/09/23 06:42:56;;;;;;;10.40;5.80;;;12.20;99.90;;;;;;5042899;28;20390;-68
2023/09/23 06:45:22;;;;;;;13.27;6.50;;;12.30;99.90;;;;;;5047237;28;20079;-68
2023/09/23 06:47:48;;;;;;;11.75;6.25;;;12.30;99.90;;;;;;5058665;28;20032;-68
2023/09/23 06:50:17;;;;;;;10.93;6.35;;;12.40;99.90;;;;;;5043887;28;20080;-69
2023/09/23 06:52:43;;;;;;;11.02;6.30;;;12.50;99.90;;;;;;5030609;28;20075;-70
2023/09/23 06:55:11;;;;;;;12.32;6.47;;;12.60;99.90;;;;;;5034513;28;20575;-69
2023/09/23 06:57:37;;;;;;;10.50;6.07;;;12.70;99.90;;;;;;5037735;28;20040;-69
2023/09/23 07:00:07;;;;;;;12.23;6.03;;;12.80;99.90;;;;;;5039848;28;20496;-69
2023/09/23 07:02:36;;;;;;;11.40;6.35;;;12.80;99.90;;;;;;5030237;28;20079;-69
2023/09/23 07:05:02;;;;;;;11.02;5.05;;;12.90;99.90;;;;;;5049395;28;20051;-77
2023/09/23 07:07:28;;;;;;;11.35;5.72;;;13.00;99.90;;;;;;5032403;28;20458;-69
2023/09/23 07:09:54;;;;;;;8.63;4.60;;;13.10;99.90;;;;;;5066266;28;20083;-70
2023/09/23 07:12:20;;;;;;;13.18;5.90;;;13.20;99.90;;;;;;5045865;28;20072;-70
2023/09/23 07:14:45;;;;;;;9.50;4.65;;;13.30;99.90;;;;;;5070376;28;20048;-70
2023/09/23 07:17:14;;;;;;;8.07;4.72;;;13.40;99.90;;;;;;5047504;28;20033;-70
2023/09/23 07:19:39;;;;;;;7.63;4.30;;;13.60;99.90;;;;;;5046044;28;20040;-69
2023/09/23 07:22:05;;;;;;;7.63;4.05;;;13.70;99.90;;;;;;5066231;28;20048;-69
2023/09/23 07:24:34;;;;;;;6.65;3.80;;;13.70;99.90;;;;;;5052824;28;20487;-69
2023/09/23 07:27:05;;;;;;;6.70;4.47;;;13.80;99.90;;;;;;5044702;28;20045;-70
2023/09/23 07:29:32;;;;;;;9.63;4.18;;;13.90;99.90;;;;;;5043878;28;20043;-69
2023/09/23 07:32:00;;;;;;;12.73;4.47;;;13.90;99.90;;;;;;5027996;28;20119;-69
2023/09/23 07:34:26;;;;;;;6.18;3.80;;;13.90;99.90;;;;;;5053430;28;20128;-70
2023/09/23 07:36:52;;;;;;;9.38;4.60;;;13.90;99.90;;;;;;5041502;28;20044;-69
2023/09/23 07:39:17;;;;;;;6.87;3.43;;;13.90;99.90;;;;;;5041502;28;20468;-69
2023/09/23 07:41:43;;;;;;;8.57;4.07;;;13.90;99.90;;;;;;5047858;28;20699;-69
2023/09/23 07:44:11;;;;;;;6.78;3.80;;;13.90;99.90;;;;;;5049578;28;20304;-68
2023/09/23 07:46:37;;;;;;;5.95;3.92;;;13.90;99.90;;;;;;5041235;28;20044;-69
2023/09/23 07:49:05;;;;;;;7.93;4.45;;;13.90;99.90;;;;;;5042962;28;20055;-69
2023/09/23 07:51:30;;;;;;;10.40;4.07;;;13.90;99.90;;;;;;5044799;28;20051;-69
2023/09/23 07:53:58;;;;;;;7.90;4.17;;;14.00;99.90;;;;;;5063532;28;20412;-69
2023/09/23 07:56:24;;;;;;;7.60;3.95;;;14.00;99.90;;;;;;5039020;28;20297;-69
2023/09/23 07:58:52;;;;;;;8.10;3.28;;;14.10;99.90;;;;;;5044272;28;20127;-69
2023/09/23 08:01:18;;;;;;;5.95;3.00;;;14.10;99.90;;;;;;5056629;28;20465;-70
2023/09/23 08:03:43;;;;;;;4.32;2.70;;;14.10;99.90;;;;;;5053075;28;20472;-69
2023/09/23 08:06:09;;;;;;;5.80;2.63;;;14.30;99.90;;;;;;5024238;28;20354;-70
2023/09/23 08:08:34;;;;;;;9.20;2.63;;;14.30;99.90;;;;;;5066786;28;20128;-69
2023/09/23 08:11:00;;;;;;;5.17;2.33;;;14.40;99.90;;;;;;5045644;28;20376;-69
2023/09/23 08:13:26;;;;;;;5.63;2.23;;;14.40;99.90;;;;;;5062433;28;20296;-70
2023/09/23 08:15:59;;;;;;;3.60;1.30;;;14.50;99.90;;;;;;5043678;28;20693;-69
2023/09/23 08:18:25;;;;;;;3.67;1.52;;;14.60;99.90;;;;;;5033482;28;20060;-70
2023/09/23 08:21:02;;;;;;;3.15;1.38;;;14.60;99.90;;;;;;5059529;28;20424;-69
2023/09/23 08:23:28;;;;;;;3.78;1.55;;;14.70;99.90;;;;;;5043241;28;20035;-69
2023/09/23 08:25:55;;;;;;;2.78;1.23;;;14.70;99.90;;;;;;5058485;28;20052;-69
2023/09/23 08:28:21;;;;;;;3.75;1.30;;;14.70;99.90;;;;;;5065269;28;20088;-69
2023/09/23 08:30:48;;;;;;;2.97;1.52;;;14.70;99.90;;;;;;5045628;28;20531;-69
2023/09/23 08:33:19;;;;;;;2.20;0.90;;;14.80;99.90;;;;;;5058532;28;20045;-69
2023/09/23 08:35:48;;;;;;;2.90;1.13;;;14.80;99.90;;;;;;5046590;28;20455;-70
2023/09/23 08:38:14;;;;;;;3.95;1.40;;;14.90;99.90;;;;;;5049645;28;20524;-72
2023/09/23 08:40:42;;;;;;;2.80;0.90;;;15.00;99.90;;;;;;5061589;28;20490;-70
2023/09/23 08:43:10;;;;;;;6.97;1.88;;;15.00;99.90;;;;;;5042017;28;20041;-72
2023/09/23 08:45:46;;;;;;;4.95;1.70;;;15.10;99.90;;;;;;5046982;28;20044;-72
2023/09/23 08:48:13;;;;;;;3.42;1.25;;;15.20;99.90;;;;;;5047661;28;20047;-71
2023/09/23 08:50:42;;;;;;;;;;;15.30;99.90;;;;;;5049623;28;20048;-72
2023/09/23 08:53:11;;;;;;;7.35;1.70;;;15.40;99.90;;;;;;5050548;28;19942;-74
2023/09/23 08:55:41;;;;;;;7.88;2.05;;;15.50;99.90;;;;;;5043600;28;20043;-71
2023/09/23 08:58:06;;;;;;;5.85;2.20;;;15.60;99.90;;;;;;5042686;28;20080;-76
2023/09/23 09:00:32;;;;;;;6.05;2.90;;;15.70;99.90;;;;;;5044392;28;20464;-78
2023/09/23 09:03:01;;;;;;;10.38;2.78;;;15.70;99.90;;;;;;5043250;28;20408;-70
2023/09/23 09:05:39;;;;;;;4.13;2.28;;;15.80;99.90;;;;;;5036093;28;20049;-70
2023/09/23 09:08:06;;;;;;;5.25;2.22;;;15.90;99.90;;;;;;5040117;28;21005;-70
2023/09/23 09:10:35;;;;;;;5.80;2.05;;;15.90;99.90;;;;;;5046089;28;20044;-70
2023/09/23 09:13:05;;;;;;;3.53;1.85;;;16.00;99.90;;;;;;5043381;28;20212;-70
2023/09/23 09:15:34;;;;;;;3.85;1.85;;;16.10;99.90;;;;;;5030470;28;20040;-69
2023/09/23 09:18:01;;;;;;;8.68;2.17;;;16.20;99.90;;;;;;5027894;28;20049;-69
2023/09/23 09:20:31;;;;;;;3.75;2.00;;;16.20;99.90;;;;;;5062310;28;20228;-69
2023/09/23 09:22:57;;;;;;;3.20;1.63;;;16.20;99.90;;;;;;5044741;28;20079;-70
2023/09/23 09:25:23;;;;;;;;;;;16.20;99.90;;;;;;5040154;28;20059;-69
2023/09/23 09:27:50;;;;;;;4.55;1.73;;;16.20;99.90;;;;;;5061487;28;20015;-69
2023/09/23 09:30:16;;;;;;;5.63;1.75;;;16.10;99.90;;;;;;5047463;28;20080;-69
2023/09/23 09:32:46;;;;;;;4.00;1.50;;;16.10;99.90;;;;;;5044942;28;20445;-69
2023/09/23 09:35:18;;;;;;;4.55;1.40;;;16.10;99.90;;;;;;5064534;28;20055;-70
2023/09/23 09:37:48;;;;;;;4.57;1.58;;;16.00;99.90;;;;;;5058780;28;20101;-70
2023/09/23 09:40:17;;;;;;;3.97;0.80;;;16.00;99.90;;;;;;5038899;28;20036;-70
2023/09/23 09:42:57;;;;;;;2.22;0.90;;;15.90;99.90;;;;;;5043096;28;20037;-70
2023/09/23 09:45:23;;;;;;;4.25;0.98;;;15.80;99.90;;;;;;5063879;28;20330;-69
2023/09/23 09:47:51;;;;;;;;;;;15.90;99.90;;;;;;5059886;28;20044;-70
2023/09/23 09:50:25;;;;;;;5.05;2.40;;;15.90;99.90;;;;;;5058842;28;19916;-70
2023/09/23 09:52:56;;;;;;;5.47;2.85;;;16.00;99.90;;;;;;5037802;28;20045;-70
2023/09/23 09:55:24;;;;;;;4.88;2.13;;;16.10;99.90;;;;;;5040962;28;20036;-70
2023/09/23 09:57:52;;;;;;;4.82;2.67;;;16.20;99.90;;;;;;5044247;28;20080;-70
2023/09/23 10:00:28;;;;;;;5.60;2.13;;;16.20;99.90;;;;;;5041153;28;20416;-70
2023/09/23 10:03:01;;;;;;;5.90;1.97;;;16.30;99.90;;;;;;5064729;28;20032;-70
2023/09/23 10:05:34;;;;;;;5.78;1.80;;;16.40;99.90;;;;;;5045150;28;20036;-70
2023/09/23 10:08:15;;;;;;;3.53;1.67;;;16.50;99.90;;;;;;5030741;28;20098;-70
2023/09/23 10:10:47;;;;;;;3.08;1.50;;;16.60;99.90;;;;;;5062508;28;20049;-70
2023/09/23 10:13:24;;;;;;;4.88;1.95;;;16.60;99.90;;;;;;5051896;28;20047;-70
2023/09/23 10:15:50;;;;;;;3.40;1.85;;;16.70;99.90;;;;;;5049152;28;20405;-69
2023/09/23 10:18:16;;;;;;;;;;;16.70;99.90;;;;;;5044578;28;20059;-69
2023/09/23 10:20:56;;;;;;;5.13;1.45;;;16.70;99.90;;;;;;5050066;28;20389;-70
2023/09/23 10:23:22;;;;;;;4.68;1.45;;;16.70;99.90;;;;;;5066277;28;20154;-70
2023/09/23 10:25:51;;;;;;;3.00;1.30;;;16.60;99.90;;;;;;5069571;28;20128;-69
2023/09/23 10:28:26;;;;;;;3.47;1.20;;;16.60;99.90;;;;;;5040173;28;20072;-70
2023/09/23 10:30:59;;;;;;;2.83;0.90;;;16.70;99.90;;;;;;5046195;28;20064;-70
2023/09/23 10:33:26;;;;;;;3.65;1.10;;;16.70;99.90;;;;;;5051060;28;20404;-70
2023/09/23 10:35:56;;;;;;;4.82;0.90;;;16.90;99.90;;;;;;5066461;28;20176;-70
2023/09/23 10:38:24;;;;;;;4.32;1.00;;;17.00;99.90;;;;;;5045710;28;20036;-70
2023/09/23 10:40:59;;;;;;;2.58;0.60;;;17.00;99.90;;;;;;5063215;28;20046;-70
2023/09/23 10:43:24;;;;;;;1.35;0.40;;;17.00;99.90;;;;;;5049236;28;20093;-70
2023/09/23 10:45:58;;;;;;;4.85;0.70;;;17.00;99.90;;;;;;5046478;28;20048;-70
2023/09/23 10:48:24;;;;;;;2.88;0.68;;;17.00;99.90;;;;;;5067347;28;20123;-70
2023/09/23 10:50:51;;;;;;;3.40;0.70;;;17.20;99.90;;;;;;5042959;28;20059;-70
2023/09/23 10:53:18;;;;;;;1.52;0.40;;;17.20;99.90;;;;;;5032761;28;20044;-70
2023/09/23 10:55:44;;;;;;;1.38;0.50;;;17.20;99.90;;;;;;5047005;28;20101;-70
2023/09/23 10:58:10;;;;;;;4.60;0.50;;;17.30;99.90;;;;;;5042401;28;20049;-70
2023/09/23 11:00:41;;;;;;;2.17;0.85;;;17.30;99.90;;;;;;5062411;28;20051;-70
2023/09/23 11:03:11;;;;;;;7.45;1.30;;;17.20;99.90;;;;;;5064697;28;20032;-70
2023/09/23 11:05:38;;;;;;;0.95;0.43;;;17.10;99.90;;;;;;5063295;28;20162;-70
2023/09/23 11:08:12;;;;;;;3.00;0.63;;;17.10;99.90;;;;;;5045085;28;20060;-70
2023/09/23 11:10:42;;;;;;;2.45;0.30;;;17.00;99.90;;;;;;5049482;28;20146;-70
2023/09/23 11:13:10;;;;;;;2.90;0.80;;;17.00;99.90;;;;;;5066042;28;20032;-70
2023/09/23 11:15:41;;;;;;;4.70;0.85;;;17.00;99.90;;;;;;5065891;28;20043;-70
2023/09/23 11:18:11;;;;;;;1.65;0.50;;;17.00;99.90;;;;;;5037919;28;20063;-70
2023/09/23 11:20:42;;;;;;;3.35;0.77;;;17.00;99.90;;;;;;5041577;28;20068;-70
2023/09/23 11:23:11;;;;;;;2.17;0.60;;;16.90;99.90;;;;;;5048822;28;20044;-70
2023/09/23 11:25:41;;;;;;;2.85;0.95;;;16.90;99.90;;;;;;5066406;28;20416;-70
2023/09/23 11:28:17;;;;;;;1.95;0.50;;;17.00;99.90;;;;;;5046335;28;20037;-70
2023/09/23 11:30:43;;;;;;;1.33;0.50;;;17.20;99.90;;;;;;5052490;28;20044;-70
2023/09/23 11:33:13;;;;;;;3.80;0.73;;;17.40;99.90;;;;;;5029393;28;20459;-70
2023/09/23 11:35:48;;;;;;;2.05;0.70;;;17.60;99.90;;;;;;5046563;28;20115;-70
2023/09/23 11:38:14;;;;;;;1.70;0.70;;;17.70;99.90;;;;;;5062291;28;20097;-69
2023/09/23 11:40:40;;;;;;;3.70;0.77;;;17.70;99.90;;;;;;5047127;28;20040;-69
2023/09/23 11:43:09;;;;;;;1.67;0.70;;;17.60;99.90;;;;;;5065774;28;20440;-69
2023/09/23 11:45:35;;;;;;;3.60;1.05;;;17.50;99.90;;;;;;5064903;28;20043;-69
2023/09/23 11:48:03;;;;;;;4.40;0.75;;;17.40;99.90;;;;;;5045229;28;20055;-69
2023/09/23 11:50:29;;;;;;;2.83;0.90;;;17.20;99.90;;;;;;5028296;28;20036;-70
2023/09/23 11:52:55;;;;;;;;;;;17.10;99.90;;;;;;5043366;28;20040;-69
2023/09/23 11:55:25;;;;;;;3.65;0.52;;;17.10;99.90;;;;;;5061424;28;20415;-69
2023/09/23 11:57:53;;;;;;;2.05;0.43;;;17.10;99.90;;;;;;5042169;28;20193;-70
2023/09/23 12:00:20;;;;;;;2.78;0.40;;;17.20;99.90;;;;;;5045279;28;20393;-70
2023/09/23 12:02:48;;;;;;;2.33;0.70;;;17.30;99.90;;;;;;5046039;28;20052;-70
2023/09/23 12:05:17;;;;;;;1.73;0.50;;;17.50;99.90;;;;;;5062028;28;20412;-70
2023/09/23 12:07:43;;;;;;;2.08;0.30;;;17.60;99.90;;;;;;5062499;28;20033;-71
2023/09/23 12:10:09;;;;;;;0.90;0.40;;;17.70;99.90;;;;;;5047295;28;20040;-70
2023/09/23 12:12:36;;;;;;;1.52;0.40;;;17.80;99.90;;;;;;5043916;28;20108;-70
2023/09/23 12:15:02;;;;;;;0.28;0.15;;;17.90;99.90;;;;;;5062565;28;20192;-70
2023/09/23 12:17:28;;;;;;;1.20;0.40;;;18.00;99.90;;;;;;5048626;28;20044;-70
2023/09/23 12:19:56;;;;;;;0.68;0.38;;;18.10;99.90;;;;;;5065160;28;20632;-70
2023/09/23 12:22:25;;;;;;;0.40;0.20;;;18.20;99.90;;;;;;5069922;28;20346;-70
2023/09/23 12:24:53;;;;;;;3.13;0.50;;;18.20;99.90;;;;;;5047382;28;20049;-70
2023/09/23 12:27:20;;;;;;;3.10;0.40;;;18.30;99.90;;;;;;5069335;28;20059;-70
2023/09/23 12:29:45;;;;;;;1.10;0.60;;;18.40;99.90;;;;;;5047792;28;20040;-70
2023/09/23 12:32:11;;;;;;;2.45;0.35;;;18.50;99.90;;;;;;5047594;28;20066;-70
2023/09/23 12:34:40;;;;;;;;;;;18.60;99.90;;;;;;5067402;28;20399;-70
2023/09/23 12:37:05;;;;;;;6.95;0.73;;;18.60;99.90;;;;;;5032082;28;19928;-70
2023/09/23 12:39:32;;;;;;;1.88;0.73;;;18.60;99.90;;;;;;5047676;28;20199;-70
2023/09/23 12:41:57;;;;;;;;;;;18.60;99.90;;;;;;5059247;28;20091;-70
2023/09/23 12:44:23;;;;;;;1.35;0.50;;;18.70;99.90;;;;;;5064976;28;19952;-70
2023/09/23 12:46:49;;;;;;;1.60;0.50;;;18.70;99.90;;;;;;5062676;28;20076;-70
2023/09/23 12:49:15;;;;;;;1.95;0.60;;;18.80;99.90;;;;;;5062965;28;20512;-70
2023/09/23 12:51:44;;;;;;;2.15;0.65;;;18.80;99.90;;;;;;5063416;28;20496;-70